Time;durP1;ratioP1;P1;durP2;ratioP2;P2;SDS_P1;SDS_P2;PMS_P1;PMS_P2;Temp;Humidity;BMP_temperature;BMP_pressure;BME280_temperature;BME280_humidity;BME280_pressure;Samples;Min_cycle;Max_cycle;Signal;HPM_P1;HPM_P2
2023/10/10 00:01:44;;;;;;;2.83;2.63;;;8.10;99.90;;;;;;6248996;23;20183;-82
2023/10/10 00:04:11;;;;;;;2.35;2.20;;;8.10;99.90;;;;;;6248653;23;20557;-80
2023/10/10 00:06:40;;;;;;;3.95;2.78;;;8.10;99.90;;;;;;6249855;23;20192;-80
2023/10/10 00:09:10;;;;;;;3.55;3.33;;;7.20;99.90;;;;;;6249606;23;20191;-80
2023/10/10 00:11:41;;;;;;;2.17;2.08;;;7.90;99.90;;;;;;6223974;23;20319;-83
2023/10/10 00:14:18;;;;;;;1.13;1.13;;;;;;;;;;6249566;23;20183;-79
2023/10/10 00:16:48;;;;;;;1.50;1.40;;;8.50;99.90;;;;;;6249449;23;20519;-81
2023/10/10 00:19:29;;;;;;;0.75;0.75;;;7.80;99.90;;;;;;6249433;23;20271;-81
2023/10/10 00:21:57;;;;;;;2.78;2.58;;;8.10;99.90;;;;;;6249182;23;20469;-81
2023/10/10 00:24:30;;;;;;;3.30;3.10;;;;;;;;;;6247908;23;20197;-81
2023/10/10 00:27:00;;;;;;;1.15;1.05;;;7.80;99.90;;;;;;6248124;23;20174;-81
2023/10/10 00:29:28;;;;;;;3.20;3.05;;;7.90;99.90;;;;;;6248262;23;20184;-84
2023/10/10 00:31:55;;;;;;;2.42;2.33;;;7.70;99.90;;;;;;6247614;23;20570;-80
2023/10/10 00:34:24;;;;;;;1.98;1.88;;;8.20;99.90;;;;;;6246795;23;20191;-85
2023/10/10 00:36:50;;;;;;;3.95;3.25;;;8.30;99.90;;;;;;6248254;23;20207;-82
2023/10/10 00:39:30;;;;;;;0.70;0.70;;;7.80;99.90;;;;;;6249058;23;20195;-85
2023/10/10 00:42:04;;;;;;;2.05;1.95;;;7.90;99.90;;;;;;6248306;23;20235;-81
2023/10/10 00:44:33;;;;;;;1.90;1.80;;;8.30;99.90;;;;;;6248231;23;20168;-79
2023/10/10 00:47:03;;;;;;;2.45;1.45;;;8.50;99.90;;;;;;6252262;23;20175;-82
2023/10/10 00:49:36;;;;;;;2.90;2.75;;;8.00;99.90;;;;;;6248957;23;20211;-82
2023/10/10 00:52:07;;;;;;;1.50;1.50;;;;;;;;;;6248704;23;20160;-80
2023/10/10 00:54:43;;;;;;;3.83;3.58;;;8.70;99.90;;;;;;6251512;23;20204;-81
2023/10/10 00:57:19;;;;;;;3.20;3.00;;;8.30;99.90;;;;;;6253851;23;20191;-78
2023/10/10 00:59:48;;;;;;;4.20;4.00;;;8.10;99.90;;;;;;6223353;23;20391;-81
2023/10/10 01:02:17;;;;;;;1.25;1.25;;;7.70;99.90;;;;;;6223862;23;20226;-80
2023/10/10 01:07:22;;;;;;;4.80;2.85;;;8.10;99.90;;;;;;6249714;23;20195;-80
2023/10/10 01:09:56;;;;;;;4.05;3.70;;;7.70;99.90;;;;;;6250192;23;20176;-80
2023/10/10 01:12:32;;;;;;;1.77;1.67;;;7.80;99.90;;;;;;6249371;23;20168;-79
2023/10/10 01:15:03;;;;;;;1.52;1.42;;;8.00;99.90;;;;;;6257341;23;20167;-79
2023/10/10 01:17:32;;;;;;;1.90;1.80;;;8.20;99.90;;;;;;6236932;23;20160;-83
2023/10/10 01:20:18;;;;;;;0.95;0.95;;;8.10;99.90;;;;;;6270561;22;20186;-82
2023/10/10 01:22:47;;;;;;;3.03;2.83;;;8.20;99.90;;;;;;6247146;22;20186;-82
2023/10/10 01:28:23;;;;;;;3.70;3.50;;;8.00;99.90;;;;;;6264575;23;20167;-82
2023/10/10 01:30:59;;;;;;;1.75;1.73;;;8.00;99.90;;;;;;6228934;23;20215;-80
2023/10/10 01:33:36;;;;;;;2.05;1.95;;;8.10;99.90;;;;;;6250501;23;20190;-81
2023/10/10 01:36:11;;;;;;;4.85;3.83;;;7.90;99.90;;;;;;6248874;23;20191;-80
2023/10/10 01:38:41;;;;;;;2.25;2.08;;;8.10;99.90;;;;;;6250103;23;20158;-83
2023/10/10 01:41:31;;;;;;;5.63;3.33;;;8.40;99.90;;;;;;6251402;23;20192;-79
2023/10/10 01:44:11;;;;;;;1.75;1.70;;;;;;;;;;6250663;23;20168;-81
2023/10/10 01:46:40;;;;;;;3.28;3.00;;;8.10;99.90;;;;;;6250081;23;20160;-80
2023/10/10 01:49:13;;;;;;;4.50;3.65;;;8.20;99.90;;;;;;6250221;23;20183;-82
2023/10/10 01:51:42;;;;;;;2.00;1.90;;;8.30;99.90;;;;;;6223416;23;20641;-80
2023/10/10 01:54:19;;;;;;;1.88;1.77;;;7.90;99.90;;;;;;6250178;23;20183;-80
2023/10/10 01:56:46;;;;;;;2.67;2.40;;;8.40;99.90;;;;;;6226551;23;20215;-86
2023/10/10 01:59:23;;;;;;;2.00;1.90;;;;;;;;;;6252380;23;20197;-81
2023/10/10 02:01:53;;;;;;;2.30;2.20;;;8.30;99.90;;;;;;6256096;23;20164;-80
2023/10/10 02:04:28;;;;;;;0.98;0.98;;;;;;;;;;6254269;23;20230;-79
2023/10/10 02:06:57;;;;;;;2.05;1.95;;;8.60;99.90;;;;;;6252606;23;20194;-81
2023/10/10 02:11:53;;;;;;;5.72;5.40;;;8.40;99.90;;;;;;6253176;23;20187;-83
2023/10/10 02:14:26;;;;;;;3.30;3.05;;;8.40;99.90;;;;;;6251499;23;20160;-81
2023/10/10 02:16:54;;;;;;;1.73;1.65;;;7.80;99.90;;;;;;6248466;23;20238;-83
2023/10/10 02:19:33;;;;;;;1.40;1.38;;;8.30;99.90;;;;;;6248122;23;20180;-81
2023/10/10 02:22:15;;;;;;;3.67;3.47;;;8.40;99.90;;;;;;6248709;23;20420;-81
2023/10/10 02:24:48;;;;;;;3.35;3.25;;;;;;;;;;6248554;23;20167;-86
2023/10/10 02:27:29;;;;;;;2.75;2.35;;;8.20;99.90;;;;;;6222769;23;20206;-81
2023/10/10 02:29:57;;;;;;;1.35;1.35;;;8.30;99.90;;;;;;6248683;23;20475;-84
2023/10/10 02:32:33;;;;;;;0.88;0.88;;;8.30;99.90;;;;;;6248496;23;20168;-83
2023/10/10 02:35:26;;;;;;;0.90;0.90;;;8.50;99.90;;;;;;6224579;23;20194;-82
2023/10/10 02:37:54;;;;;;;3.35;3.25;;;;;;;;;;6253481;22;20175;-81
2023/10/10 02:40:30;;;;;;;0.88;0.88;;;;;;;;;;6250735;23;20184;-81
2023/10/10 02:45:45;;;;;;;1.00;1.00;;;8.30;99.90;;;;;;6250777;23;20179;-80
2023/10/10 02:48:20;;;;;;;1.63;1.63;;;;;;;;;;6249988;23;20176;-82
2023/10/10 02:50:51;;;;;;;1.48;1.48;;;7.90;99.90;;;;;;6250044;23;20174;-82
2023/10/10 02:53:19;;;;;;;4.03;3.58;;;;;;;;;;6249996;23;20521;-80
2023/10/10 02:55:53;;;;;;;1.58;1.52;;;;;;;;;;6249640;23;20512;-85
2023/10/10 02:58:20;;;;;;;4.55;4.20;;;7.90;99.90;;;;;;6250806;23;20198;-81
2023/10/10 03:00:52;;;;;;;3.55;3.35;;;8.70;99.90;;;;;;6251140;23;20179;-84
2023/10/10 03:03:19;;;;;;;2.55;2.45;;;;;;;;;;6253074;23;20204;-80
2023/10/10 03:05:50;;;;;;;4.53;3.05;;;7.80;99.90;;;;;;6226182;23;20245;-80
2023/10/10 03:08:35;;;;;;;1.25;1.25;;;8.20;99.90;;;;;;6250721;23;20357;-80
2023/10/10 03:11:14;;;;;;;2.22;2.13;;;7.70;99.90;;;;;;6250220;23;20360;-81
2023/10/10 03:13:54;;;;;;;4.13;3.75;;;8.20;99.90;;;;;;6249725;23;20190;-82
2023/10/10 03:19:12;;;;;;;1.23;1.23;;;7.90;99.90;;;;;;6250540;23;20639;-80
2023/10/10 03:29:27;;;;;;;3.15;2.88;;;7.90;99.90;;;;;;6251333;23;20364;-82
2023/10/10 03:32:19;;;;;;;1.15;1.15;;;7.90;99.90;;;;;;6251909;23;20214;-80
2023/10/10 03:35:13;;;;;;;2.53;2.42;;;8.50;99.90;;;;;;6270641;22;20170;-83
2023/10/10 03:37:54;;;;;;;1.75;1.67;;;;;;;;;;6262228;22;20262;-82
2023/10/10 03:40:26;;;;;;;1.65;1.55;;;;;;;;;;6252281;23;20182;-82
2023/10/10 05:23:34;;;;;;;5.97;5.53;;;8.30;99.90;;;;;;6249494;23;20191;-83
2023/10/10 05:26:05;;;;;;;3.97;3.45;;;8.60;99.90;;;;;;6226995;23;20439;-80
2023/10/10 05:28:33;;;;;;;3.88;3.67;;;;;;;;;;6240966;23;20202;-81
2023/10/10 05:31:02;;;;;;;0.90;0.90;;;8.40;99.90;;;;;;6262928;22;20175;-80
2023/10/10 05:33:30;;;;;;;1.83;1.73;;;8.70;99.90;;;;;;6250566;23;20232;-80
2023/10/10 05:35:59;;;;;;;2.47;2.28;;;8.90;99.90;;;;;;6252242;23;20635;-86
2023/10/10 05:38:28;;;;;;;2.38;2.28;;;;;;;;;;6224339;23;20562;-79
2023/10/10 05:40:57;;;;;;;6.90;6.38;;;;;;;;;;6251429;23;20454;-81
2023/10/10 05:43:33;;;;;;;4.15;3.95;;;;;;;;;;6249851;23;20214;-77
2023/10/10 05:46:03;;;;;;;5.30;4.90;;;8.70;99.90;;;;;;6249691;23;20210;-79
2023/10/10 05:48:31;;;;;;;2.17;2.08;;;7.50;99.90;;;;;;6253873;23;20164;-81
2023/10/10 05:50:59;;;;;;;2.72;2.58;;;8.80;99.90;;;;;;6253696;23;20270;-84
2023/10/10 05:53:27;;;;;;;1.80;1.73;;;;;;;;;;6250517;23;20184;-81
2023/10/10 05:55:58;;;;;;;3.63;3.42;;;8.70;99.90;;;;;;6222241;23;20187;-80
2023/10/10 05:58:26;;;;;;;4.80;4.40;;;8.80;99.90;;;;;;6248512;23;20217;-84
2023/10/10 06:00:54;;;;;;;2.65;2.55;;;;;;;;;;6249561;23;20171;-81
2023/10/10 06:03:22;;;;;;;3.65;3.45;;;;;;;;;;6222940;23;20183;-82
2023/10/10 06:05:50;;;;;;;2.67;2.58;;;;;;;;;;6249531;23;20218;-81
2023/10/10 06:08:20;;;;;;;6.63;6.22;;;;;;;;;;6249961;23;20194;-81
2023/10/10 06:10:48;;;;;;;2.97;2.70;;;;;;;;;;6248493;23;20312;-81
2023/10/10 06:13:15;;;;;;;5.15;4.82;;;;;;;;;;6249475;23;20193;-81
2023/10/10 06:15:43;;;;;;;4.10;3.90;;;;;;;;;;6250816;23;20210;-81
2023/10/10 06:18:14;;;;;;;2.38;2.13;;;;;;;;;;6251040;23;20270;-86
2023/10/10 06:20:45;;;;;;;4.13;3.88;;;9.00;99.90;;;;;;6254219;23;20460;-84
2023/10/10 06:23:35;;;;;;;4.53;4.25;;;;;;;;;;6250422;23;20492;-81
2023/10/10 06:26:03;;;;;;;2.17;2.03;;;9.00;99.90;;;;;;6224706;23;20248;-86
2023/10/10 06:28:48;;;;;;;6.10;5.70;;;;;;;;;;6252751;23;20183;-82
2023/10/10 06:31:27;;;;;;;5.18;4.82;;;8.90;99.90;;;;;;6251908;23;20377;-80
2023/10/10 06:33:57;;;;;;;4.38;4.07;;;9.00;99.90;;;;;;6250700;23;20167;-80
2023/10/10 06:41:46;;;;;;;2.70;2.60;;;;;;;;;;6254638;23;20356;-85
2023/10/10 06:44:39;;;;;;;4.40;4.10;;;;;;;;;;6235404;23;20179;-77
2023/10/10 06:47:08;;;;;;;2.35;2.13;;;;;;;;;;6239405;23;20276;-86
2023/10/10 06:49:43;;;;;;;3.53;3.22;;;;;;;;;;6259443;23;20160;-80
2023/10/10 06:52:18;;;;;;;8.68;5.97;;;9.30;99.90;;;;;;6257274;23;20266;-81
2023/10/10 06:54:53;;;;;;;4.78;4.35;;;;;;;;;;6258148;23;20239;-82
2023/10/10 06:57:36;;;;;;;7.35;6.75;;;9.40;99.90;;;;;;6258750;23;20192;-83
2023/10/10 07:00:20;;;;;;;2.55;2.35;;;9.30;99.90;;;;;;6237072;23;20207;-86
2023/10/10 07:02:50;;;;;;;9.60;2.47;;;9.40;99.90;;;;;;6256219;23;20175;-87
2023/10/10 07:05:19;;;;;;;8.13;7.38;;;;;;;;;;6236874;23;20171;-80
2023/10/10 07:07:58;;;;;;;2.50;2.38;;;;;;;;;;6239407;23;20186;-82
2023/10/10 07:10:33;;;;;;;4.60;4.38;;;9.60;99.90;;;;;;6253845;23;20202;-85
2023/10/10 07:13:11;;;;;;;2.28;2.17;;;9.60;99.90;;;;;;6226255;23;20486;-82
2023/10/10 07:15:42;;;;;;;1.33;1.33;;;9.40;99.90;;;;;;6226823;23;20342;-81
2023/10/10 07:18:16;;;;;;;3.78;3.60;;;;;;;;;;6251853;23;20191;-82
2023/10/10 07:23:37;;;;;;;3.08;2.95;;;9.60;99.90;;;;;;6256302;23;20221;-84
2023/10/10 07:26:07;;;;;;;2.15;2.05;;;9.50;99.90;;;;;;6254531;23;20231;-82
2023/10/10 07:28:47;;;;;;;4.03;3.60;;;;;;;;;;6254424;23;20179;-81
2023/10/10 07:31:23;;;;;;;1.98;1.88;;;9.60;99.90;;;;;;6253416;23;20218;-87
2023/10/10 07:33:57;;;;;;;0.90;0.90;;;9.60;99.90;;;;;;6252406;23;20202;-83
2023/10/10 07:36:26;;;;;;;1.88;1.77;;;;;;;;;;6252128;23;20530;-81
2023/10/10 07:38:54;;;;;;;3.08;2.88;;;;;;;;;;6252630;23;20251;-82
2023/10/10 07:41:27;;;;;;;3.25;3.05;;;;;;;;;;6255458;23;20274;-87
2023/10/10 07:43:59;;;;;;;0.90;0.90;;;;;;;;;;6254602;23;20211;-86
2023/10/10 07:46:27;;;;;;;2.60;2.40;;;;;;;;;;6257218;23;20213;-83
2023/10/10 07:48:55;;;;;;;2.58;2.47;;;10.20;99.90;;;;;;6263170;23;20182;-84
2023/10/10 07:51:29;;;;;;;1.45;1.45;;;;;;;;;;6273261;23;20178;-82
2023/10/10 07:54:11;;;;;;;1.67;1.58;;;;;;;;;;6274119;22;20152;-79
2023/10/10 07:56:45;;;;;;;3.60;3.40;;;;;;;;;;6253463;22;20187;-84
2023/10/10 07:59:13;;;;;;;1.42;1.40;;;10.10;99.90;;;;;;6250851;23;20214;-82
2023/10/10 08:01:42;;;;;;;2.08;2.00;;;;;;;;;;6256340;23;20247;-83
2023/10/10 08:04:14;;;;;;;0.75;0.75;;;10.50;99.90;;;;;;6250586;23;20203;-78
2023/10/10 08:06:44;;;;;;;0.88;0.88;;;;;;;;;;6252980;23;20178;-82
2023/10/10 08:11:45;;;;;;;2.75;2.65;;;10.60;99.90;;;;;;6267502;22;20168;-80
2023/10/10 08:14:13;;;;;;;1.90;1.80;;;;;;;;;;6272260;22;20198;-80
2023/10/10 08:16:43;;;;;;;1.58;1.55;;;10.80;99.90;;;;;;6269727;22;20179;-80
2023/10/10 08:19:11;;;;;;;0.70;0.70;;;;;;;;;;6230665;23;20234;-83
2023/10/10 08:21:39;;;;;;;3.40;3.20;;;10.70;99.90;;;;;;6228957;23;20267;-80
2023/10/10 08:24:12;;;;;;;1.33;1.33;;;;;;;;;;6253116;23;20207;-84
2023/10/10 08:26:39;;;;;;;3.00;2.80;;;;;;;;;;6252261;23;20518;-80
2023/10/10 08:29:12;;;;;;;2.58;2.47;;;11.30;99.90;;;;;;6251681;23;20184;-83
2023/10/10 08:31:44;;;;;;;0.93;0.93;;;11.50;99.90;;;;;;6251708;23;20171;-82
2023/10/10 08:34:14;;;;;;;2.28;2.17;;;;;;;;;;6252228;23;20171;-84
2023/10/10 08:36:43;;;;;;;0.55;0.55;;;;;;;;;;6252002;23;20530;-84
2023/10/10 08:39:17;;;;;;;1.15;1.15;;;;;;;;;;6223948;23;20412;-82
2023/10/10 08:41:45;;;;;;;1.13;1.13;;;;;;;;;;6250742;23;20234;-84
2023/10/10 08:44:14;;;;;;;0.50;0.50;;;11.70;99.90;;;;;;6223142;23;20247;-84
2023/10/10 08:46:49;;;;;;;0.95;0.95;;;;;;;;;;6251212;23;20435;-84
2023/10/10 08:49:18;;;;;;;2.28;2.17;;;11.10;99.90;;;;;;6225646;23;20152;-85
2023/10/10 08:51:58;;;;;;;0.68;0.68;;;11.10;99.90;;;;;;6253043;23;20183;-84
2023/10/10 08:54:26;;;;;;;0.80;0.80;;;;;;;;;;6253017;23;20175;-84
2023/10/10 08:57:00;;;;;;;1.45;1.40;;;;;;;;;;6223839;23;20253;-85
2023/10/10 08:59:30;;;;;;;1.00;1.00;;;11.90;99.90;;;;;;6249757;23;20199;-82
2023/10/10 09:02:12;;;;;;;1.73;1.63;;;11.90;99.90;;;;;;6251273;23;20183;-83
2023/10/10 09:04:39;;;;;;;2.22;2.13;;;12.00;99.90;;;;;;6224691;23;20167;-82
2023/10/10 09:10:06;;;;;;;1.13;1.13;;;12.00;99.90;;;;;;6250750;23;20167;-85
2023/10/10 09:12:52;;;;;;;0.60;0.60;;;12.10;99.90;;;;;;6251829;23;20199;-81
2023/10/10 09:15:27;;;;;;;1.63;1.55;;;12.60;99.90;;;;;;6230567;23;20221;-81
2023/10/10 09:18:27;;;;;;;1.05;1.05;;;12.90;99.90;;;;;;6254965;23;20215;-82
2023/10/10 09:21:18;;;;;;;1.90;1.77;;;11.90;99.90;;;;;;6188833;23;20618;-83
2023/10/10 09:24:07;;;;;;;2.35;2.15;;;;;;;;;;6226561;23;20227;-82
2023/10/10 09:26:36;;;;;;;1.80;1.70;;;;;;;;;;6251121;23;20163;-80
2023/10/10 09:29:15;;;;;;;2.75;2.55;;;12.50;99.90;;;;;;6249756;23;20179;-81
2023/10/10 09:31:48;;;;;;;1.08;1.08;;;12.10;99.90;;;;;;6250448;23;20167;-82
2023/10/10 09:34:22;;;;;;;1.70;1.65;;;12.60;99.90;;;;;;6249978;23;20194;-81
2023/10/10 09:36:50;;;;;;;1.33;1.33;;;12.50;99.90;;;;;;6249979;23;20159;-83
2023/10/10 09:39:35;;;;;;;2.35;2.25;;;12.50;99.90;;;;;;6250822;23;20230;-82
2023/10/10 09:42:22;;;;;;;2.30;2.20;;;12.70;99.90;;;;;;6250480;23;20191;-86
2023/10/10 09:44:53;;;;;;;1.57;1.57;;;12.90;99.90;;;;;;6249655;23;20483;-82
2023/10/10 09:52:58;;;;;;;1.07;1.07;;;13.10;99.90;;;;;;6226428;23;20551;-83
2023/10/10 10:00:45;;;;;;;1.53;1.53;;;12.90;99.90;;;;;;6263410;22;20406;-80
2023/10/10 10:06:40;;;;;;;2.83;2.60;;;12.80;99.90;;;;;;6254561;23;20352;-80
2023/10/10 10:09:45;;;;;;;2.20;2.10;;;12.90;99.90;;;;;;6227202;23;20401;-81
2023/10/10 10:12:52;;;;;;;1.87;1.77;;;13.40;99.90;;;;;;6249936;23;20729;-81
2023/10/10 10:15:49;;;;;;;1.80;1.70;;;13.30;99.90;;;;;;6253793;23;20386;-81
2023/10/10 10:19:11;;;;;;;1.80;1.70;;;13.70;99.90;;;;;;6225515;23;21068;-80
2023/10/10 10:21:32;;;;;;;3.37;2.40;;;13.30;99.90;;;;;;6243344;23;20480;-80
2023/10/10 10:24:15;;;;;;;1.33;1.33;;;;;;;;;;6248507;23;20424;-79
2023/10/10 10:26:44;;;;;;;1.07;1.07;;;;;;;;;;6248250;23;20706;-81
2023/10/10 10:29:15;;;;;;;2.90;2.70;;;13.50;99.90;;;;;;6223184;23;20381;-79
2023/10/10 10:31:49;;;;;;;1.10;1.10;;;13.70;99.90;;;;;;6248932;23;20348;-80
2023/10/10 10:34:24;;;;;;;2.07;1.97;;;;;;;;;;6222735;23;20711;-79
2023/10/10 10:37:13;;;;;;;2.43;1.67;;;13.70;99.90;;;;;;6250125;23;20552;-80
2023/10/10 10:40:22;;;;;;;0.90;0.90;;;13.80;99.90;;;;;;6221975;23;20707;-80
2023/10/10 10:42:34;;;;;;;1.70;1.70;;;14.10;99.90;;;;;;6247929;23;20450;-81
2023/10/10 10:45:26;;;;;;;1.73;1.63;;;14.20;99.90;;;;;;6248677;23;20383;-80
2023/10/10 10:47:59;;;;;;;0.70;0.70;;;14.10;99.90;;;;;;6222528;23;20367;-81
2023/10/10 10:50:28;;;;;;;2.83;1.70;;;;;;;;;;6222316;23;20368;-79
2023/10/10 10:53:04;;;;;;;3.27;3.10;;;14.40;99.90;;;;;;6248653;23;21008;-79
2023/10/10 10:55:41;;;;;;;2.00;1.90;;;14.30;99.90;;;;;;6248852;23;20746;-79
2023/10/10 10:58:20;;;;;;;1.27;1.27;;;14.60;99.90;;;;;;6248936;23;20399;-79
2023/10/10 11:04:05;;;;;;;0.93;0.93;;;14.50;99.90;;;;;;6249979;23;20667;-78
2023/10/10 11:06:32;;;;;;;3.57;3.37;;;15.70;99.90;;;;;;6250343;23;20405;-78
2023/10/10 11:09:23;;;;;;;0.90;0.90;;;;;;;;;;6249326;23;20380;-78
2023/10/10 11:11:57;;;;;;;5.80;3.43;;;;;;;;;;6249879;23;20442;-79
2023/10/10 11:14:29;;;;;;;2.80;2.70;;;15.40;99.90;;;;;;6249703;23;20443;-80
2023/10/10 11:16:56;;;;;;;2.37;2.23;;;;;;;;;;6249797;23;20404;-79
2023/10/10 11:22:01;;;;;;;1.40;1.30;;;14.60;99.90;;;;;;6249929;23;20564;-79
2023/10/10 11:24:31;;;;;;;1.43;1.33;;;14.60;99.90;;;;;;6223982;23;20403;-80
2023/10/10 11:29:43;;;;;;;1.40;1.40;;;;;;;;;;6274367;22;20415;-82
2023/10/10 11:32:24;;;;;;;0.93;0.93;;;15.20;99.90;;;;;;6257040;22;20372;-82
2023/10/10 11:35:17;;;;;;;0.90;0.90;;;15.30;99.90;;;;;;6252315;23;20594;-82
2023/10/10 11:38:06;;;;;;;0.60;0.60;;;14.80;99.90;;;;;;6251392;23;20440;-82
2023/10/10 11:40:36;;;;;;;1.07;1.07;;;14.70;99.90;;;;;;6204179;23;20351;-81
2023/10/10 11:43:17;;;;;;;0.80;0.80;;;14.30;99.90;;;;;;6252782;23;20384;-82
2023/10/10 11:45:53;;;;;;;0.67;0.67;;;;;;;;;;6252197;23;20358;-80
2023/10/10 11:48:23;;;;;;;1.00;1.00;;;;;;;;;;6251305;23;20366;-82
2023/10/10 11:50:56;;;;;;;2.90;2.77;;;14.80;99.90;;;;;;6251213;23;20352;-80
2023/10/10 11:53:28;;;;;;;0.60;0.60;;;;;;;;;;6250842;23;20409;-80
2023/10/10 11:56:04;;;;;;;2.77;2.67;;;;;;;;;;6250318;23;20707;-81
2023/10/10 11:58:37;;;;;;;0.90;0.90;;;;;;;;;;6201583;23;20407;-81
2023/10/10 12:01:06;;;;;;;2.90;2.70;;;15.20;99.90;;;;;;6223307;23;20426;-82
2023/10/10 12:06:16;;;;;;;0.70;0.70;;;14.40;99.90;;;;;;6250617;23;20399;-84
2023/10/10 12:08:45;;;;;;;5.63;1.57;;;14.30;99.90;;;;;;6250710;23;20405;-81
2023/10/10 12:11:21;;;;;;;1.00;1.00;;;14.20;99.90;;;;;;6251190;23;20424;-83
2023/10/10 12:13:52;;;;;;;0.63;0.63;;;14.10;99.90;;;;;;6251343;23;20352;-82
2023/10/10 12:16:23;;;;;;;1.13;1.07;;;;;;;;;;6225379;23;20621;-82
2023/10/10 12:18:55;;;;;;;0.50;0.50;;;;;;;;;;6251018;23;20391;-81
2023/10/10 12:21:25;;;;;;;0.50;0.50;;;14.30;99.90;;;;;;6254773;23;20696;-82
2023/10/10 12:23:55;;;;;;;0.90;0.90;;;14.50;99.90;;;;;;6263087;23;20396;-81
2023/10/10 12:26:29;;;;;;;0.70;0.70;;;;;;;;;;6256351;23;20341;-81
2023/10/10 12:28:58;;;;;;;0.50;0.50;;;;;;;;;;6255719;23;20427;-82
2023/10/10 12:31:27;;;;;;;1.53;1.53;;;;;;;;;;6255924;23;20439;-81
2023/10/10 12:33:55;;;;;;;0.87;0.87;;;;;;;;;;6255543;23;20393;-81
2023/10/10 12:36:28;;;;;;;0.53;0.53;;;14.50;99.90;;;;;;6228036;23;20402;-81
2023/10/10 12:38:59;;;;;;;0.50;0.50;;;;;;;;;;6252761;23;20434;-83
2023/10/10 12:41:27;;;;;;;2.20;2.10;;;;;;;;;;6268961;22;20393;-82
2023/10/10 12:43:55;;;;;;;1.17;1.17;;;;;;;;;;6247436;22;20372;-82
2023/10/10 12:46:23;;;;;;;0.60;0.60;;;;;;;;;;6272077;22;20396;-83
2023/10/10 12:48:51;;;;;;;0.53;0.53;;;;;;;;;;6268386;22;20409;-82
2023/10/10 12:51:22;;;;;;;0.50;0.50;;;14.60;99.90;;;;;;6228131;23;20444;-80
2023/10/10 12:53:59;;;;;;;0.50;0.50;;;;;;;;;;6250754;23;20401;-81
2023/10/10 12:56:28;;;;;;;0.57;0.57;;;;;;;;;;6225590;23;20377;-79
2023/10/10 12:59:03;;;;;;;0.50;0.50;;;;;;;;;;6251076;23;20763;-81
2023/10/10 13:01:55;;;;;;;0.70;0.70;;;;;;;;;;6252878;23;20378;-82
2023/10/10 13:04:29;;;;;;;1.30;1.27;;;;;;;;;;6252327;23;20385;-81
2023/10/10 13:07:02;;;;;;;0.70;0.70;;;;;;;;;;6226689;23;20568;-81
2023/10/10 13:09:32;;;;;;;2.73;2.00;;;15.50;99.90;;;;;;6249570;23;20392;-83
2023/10/10 13:12:02;;;;;;;1.00;1.00;;;;;;;;;;6223245;23;20579;-81
2023/10/10 13:14:32;;;;;;;0.50;0.50;;;;;;;;;;6249752;23;20352;-80
2023/10/10 13:17:28;;;;;;;1.27;1.10;;;;;;;;;;6199528;23;20397;-80
2023/10/10 13:19:58;;;;;;;0.80;0.80;;;;;;;;;;6251922;23;20415;-81
2023/10/10 13:22:29;;;;;;;1.27;1.27;;;15.50;99.90;;;;;;6227050;23;20387;-82
2023/10/10 13:24:57;;;;;;;1.03;1.03;;;;;;;;;;6227055;23;20383;-81
2023/10/10 13:27:25;;;;;;;0.67;0.67;;;;;;;;;;6229837;23;20436;-83
2023/10/10 13:29:52;;;;;;;0.60;0.60;;;;;;;;;;6254561;22;20434;-80
2023/10/10 13:32:20;;;;;;;1.07;1.07;;;;;;;;;;6251836;23;20479;-82
2023/10/10 13:34:47;;;;;;;0.50;0.50;;;15.70;99.90;;;;;;6248568;23;20446;-81
2023/10/10 13:37:15;;;;;;;0.60;0.60;;;15.30;99.90;;;;;;6253816;23;20447;-80
2023/10/10 13:39:48;;;;;;;0.70;0.70;;;15.50;99.90;;;;;;6237782;23;20403;-80
2023/10/10 13:42:17;;;;;;;0.60;0.60;;;;;;;;;;6230606;23;20645;-80
2023/10/10 13:44:45;;;;;;;0.93;0.93;;;15.30;99.90;;;;;;6249269;23;20491;-80
2023/10/10 13:47:13;;;;;;;0.60;0.60;;;15.40;99.90;;;;;;6249762;23;20720;-80
2023/10/10 13:49:52;;;;;;;0.60;0.60;;;15.40;99.90;;;;;;6250432;23;20459;-79
2023/10/10 13:52:19;;;;;;;1.30;1.30;;;15.30;99.90;;;;;;6250546;23;20567;-85
2023/10/10 13:54:46;;;;;;;1.27;1.27;;;15.30;99.90;;;;;;6250277;23;20988;-83
2023/10/10 13:57:18;;;;;;;1.10;1.10;;;15.20;99.90;;;;;;6249307;23;20430;-87
2023/10/10 13:59:49;;;;;;;0.70;0.70;;;15.30;99.90;;;;;;6249045;23;20445;-81
2023/10/10 14:02:25;;;;;;;0.87;0.87;;;15.20;99.90;;;;;;6250033;23;20394;-80
2023/10/10 14:05:00;;;;;;;0.60;0.60;;;15.20;99.90;;;;;;6224733;23;20426;-79
2023/10/10 14:07:28;;;;;;;0.60;0.60;;;15.20;99.90;;;;;;6250165;23;20382;-84
2023/10/10 14:09:55;;;;;;;0.60;0.60;;;15.10;99.90;;;;;;6251266;23;20376;-84
2023/10/10 14:12:31;;;;;;;1.13;1.13;;;15.10;99.90;;;;;;6249663;23;20858;-80
2023/10/10 14:15:01;;;;;;;0.60;0.60;;;15.50;99.90;;;;;;6249029;23;20411;-80
2023/10/10 14:17:29;;;;;;;0.50;0.50;;;15.10;99.90;;;;;;6249323;23;20419;-81
2023/10/10 14:19:59;;;;;;;1.10;1.10;;;15.10;99.90;;;;;;6247936;23;20411;-80
2023/10/10 14:22:40;;;;;;;0.50;0.50;;;15.10;99.90;;;;;;6227980;23;20371;-80
2023/10/10 14:25:21;;;;;;;1.00;1.00;;;15.00;99.90;;;;;;6251954;23;20393;-79
2023/10/10 14:27:49;;;;;;;0.50;0.50;;;15.00;99.90;;;;;;6251921;23;20420;-80
2023/10/10 14:30:23;;;;;;;0.53;0.53;;;15.10;99.90;;;;;;6240294;23;20403;-81
2023/10/10 14:32:54;;;;;;;0.90;0.90;;;15.10;99.90;;;;;;6245576;23;20400;-79
2023/10/10 14:35:23;;;;;;;0.70;0.70;;;15.10;99.90;;;;;;6273995;22;20348;-79
2023/10/10 14:37:56;;;;;;;0.50;0.50;;;15.10;99.90;;;;;;6258164;23;20371;-79
2023/10/10 14:40:28;;;;;;;0.50;0.50;;;15.20;99.90;;;;;;6252805;23;20390;-80
2023/10/10 14:42:55;;;;;;;0.50;0.50;;;14.80;99.90;;;;;;6222773;23;20729;-81
2023/10/10 14:45:28;;;;;;;0.70;0.70;;;14.90;99.90;;;;;;6249952;23;20432;-79
2023/10/10 14:47:56;;;;;;;0.50;0.50;;;14.90;99.90;;;;;;6250702;23;20384;-80
2023/10/10 14:50:24;;;;;;;0.50;0.50;;;14.90;99.90;;;;;;6223413;23;20411;-82
2023/10/10 14:52:51;;;;;;;0.90;0.90;;;15.70;99.90;;;;;;6223535;23;20458;-81
2023/10/10 14:55:27;;;;;;;1.00;1.00;;;14.70;99.90;;;;;;6250501;23;20392;-80
2023/10/10 14:57:56;;;;;;;1.00;1.00;;;14.60;99.90;;;;;;6250687;23;20444;-80
2023/10/10 15:00:25;;;;;;;0.57;0.57;;;14.50;99.90;;;;;;6250830;23;20449;-80
2023/10/10 15:02:54;;;;;;;3.80;2.20;;;14.40;99.90;;;;;;6224125;23;20387;-80
2023/10/10 15:05:23;;;;;;;0.60;0.60;;;14.30;99.90;;;;;;6224232;23;20454;-79
2023/10/10 15:07:52;;;;;;;3.23;3.00;;;14.20;99.90;;;;;;6249227;23;20360;-80
2023/10/10 15:10:25;;;;;;;0.60;0.60;;;14.10;99.90;;;;;;6249895;23;20492;-80
2023/10/10 15:12:53;;;;;;;1.33;1.10;;;13.60;99.90;;;;;;6223244;23;20389;-80
2023/10/10 15:15:22;;;;;;;1.67;1.57;;;13.90;99.90;;;;;;6221550;23;20476;-81
2023/10/10 15:17:50;;;;;;;0.50;0.50;;;13.90;99.90;;;;;;6251273;23;20604;-79
2023/10/10 15:20:17;;;;;;;0.77;0.77;;;13.80;99.90;;;;;;6249816;23;20446;-80
2023/10/10 15:22:44;;;;;;;0.90;0.90;;;13.80;99.90;;;;;;6250640;23;20425;-80
2023/10/10 15:25:12;;;;;;;0.60;0.60;;;13.80;99.90;;;;;;6250225;23;20587;-80
2023/10/10 15:27:41;;;;;;;0.70;0.70;;;13.80;99.90;;;;;;6251059;23;20716;-81
2023/10/10 15:30:09;;;;;;;3.80;2.90;;;13.80;99.90;;;;;;6250789;23;20402;-80
2023/10/10 15:32:46;;;;;;;0.60;0.60;;;13.80;99.90;;;;;;6251398;23;20744;-80
2023/10/10 15:35:18;;;;;;;0.50;0.50;;;13.80;99.90;;;;;;6226800;23;20356;-81
2023/10/10 15:37:46;;;;;;;0.93;0.93;;;13.80;99.90;;;;;;6256325;23;20367;-81
2023/10/10 15:40:23;;;;;;;0.90;0.90;;;13.70;99.90;;;;;;6261735;23;20437;-79
2023/10/10 15:42:53;;;;;;;1.33;1.23;;;13.60;99.90;;;;;;6253507;23;20360;-81
2023/10/10 15:45:21;;;;;;;0.60;0.60;;;13.20;99.90;;;;;;6250054;23;20371;-81
2023/10/10 15:47:52;;;;;;;1.00;1.00;;;13.30;99.90;;;;;;6250728;23;20406;-81
2023/10/10 15:50:21;;;;;;;1.13;1.03;;;13.20;99.90;;;;;;6249947;23;20347;-81
2023/10/10 15:52:49;;;;;;;0.70;0.70;;;13.10;99.90;;;;;;6250332;23;20389;-81
2023/10/10 15:55:23;;;;;;;0.50;0.50;;;13.80;99.90;;;;;;6223799;23;20397;-80
2023/10/10 15:57:52;;;;;;;0.85;0.85;;;13.30;99.90;;;;;;6250094;23;20538;-82
2023/10/10 16:00:43;;;;;;;1.07;1.07;;;13.20;99.90;;;;;;6250425;23;20203;-81
2023/10/10 16:03:12;;;;;;;2.05;1.45;;;12.50;99.90;;;;;;6249979;23;20352;-82
2023/10/10 16:05:41;;;;;;;0.50;0.50;;;12.80;99.90;;;;;;6250508;23;20257;-81
2023/10/10 16:08:09;;;;;;;0.82;0.82;;;;;;;;;;6250771;23;20415;-80
2023/10/10 16:10:37;;;;;;;0.60;0.60;;;;;;;;;;6225060;23;20187;-82
2023/10/10 16:13:08;;;;;;;0.40;0.40;;;;;;;;;;6249617;23;20743;-82
2023/10/10 16:15:36;;;;;;;0.40;0.40;;;;;;;;;;6224201;23;20214;-82
2023/10/10 16:18:04;;;;;;;2.42;2.33;;;12.10;99.90;;;;;;6249329;23;20183;-81
2023/10/10 16:20:35;;;;;;;0.90;0.90;;;;;;;;;;6249757;23;20210;-81
2023/10/10 16:23:07;;;;;;;1.05;1.05;;;12.10;99.90;;;;;;6256649;23;20603;-81
2023/10/10 16:25:36;;;;;;;1.58;1.48;;;12.50;99.90;;;;;;6249045;23;20741;-80
2023/10/10 16:28:07;;;;;;;0.70;0.70;;;12.20;99.90;;;;;;6250034;23;20194;-80
2023/10/10 16:30:37;;;;;;;1.08;1.08;;;12.10;99.90;;;;;;6250079;23;20256;-81
2023/10/10 16:33:08;;;;;;;0.50;0.50;;;12.00;99.90;;;;;;6249728;23;20183;-80
2023/10/10 16:35:38;;;;;;;0.50;0.50;;;11.90;99.90;;;;;;6249871;23;20243;-81
2023/10/10 16:38:06;;;;;;;0.82;0.82;;;;;;;;;;6249242;23;20202;-80